createdAt,value
2019-05-28T00:00:42.202Z,97296.09
2019-05-28T00:03:46.859Z,97299.46
2019-05-28T00:06:51.351Z,97291.09
2019-05-28T00:09:55.830Z,97293.11
2019-05-28T00:13:00.320Z,97291.70
2019-05-28T00:16:04.805Z,97291.03
2019-05-28T00:19:09.307Z,97283.19
2019-05-28T00:22:14.135Z,97285.48
2019-05-28T00:25:18.684Z,97281.48
2019-05-28T00:28:23.598Z,97274.18
2019-05-28T00:31:28.088Z,97268.80
2019-05-28T00:34:32.859Z,97269.00
2019-05-28T00:37:37.418Z,97266.58
2019-05-28T00:40:42.626Z,97259.83
2019-05-28T00:43:47.114Z,97255.19
2019-05-28T00:46:51.592Z,97254.72
2019-05-28T00:49:56.083Z,97259.05
2019-05-28T00:53:00.644Z,97258.77
2019-05-28T00:56:05.206Z,97251.67
2019-05-28T00:59:10.242Z,97253.22
2019-05-28T01:02:15.414Z,97250.74
2019-05-28T01:05:19.894Z,97240.26
2019-05-28T01:08:24.376Z,97239.17
2019-05-28T01:11:28.874Z,97242.25
2019-05-28T01:14:33.526Z,97236.54
2019-05-28T01:17:38.451Z,97239.94
2019-05-28T01:20:42.957Z,97234.52
2019-05-28T01:23:47.450Z,97236.59
2019-05-28T01:26:51.927Z,97241.08
2019-05-28T01:29:56.510Z,97244.41
2019-05-28T01:33:00.990Z,97243.06
2019-05-28T01:36:05.485Z,97239.01
2019-05-28T01:39:10.251Z,97242.80
2019-05-28T01:42:15.627Z,97245.08
2019-05-28T01:45:20.294Z,97242.34
2019-05-28T01:48:24.771Z,97246.73
2019-05-28T01:51:29.266Z,97244.36
2019-05-28T01:54:33.765Z,97247.45
2019-05-28T01:57:38.245Z,97241.33
2019-05-28T02:00:42.739Z,97246.94
2019-05-28T02:03:47.437Z,97241.29
2019-05-28T02:06:52.326Z,97242.59
2019-05-28T02:09:56.819Z,97247.53
2019-05-28T02:13:01.311Z,97249.72
2019-05-28T02:16:06.538Z,97252.50
2019-05-28T02:19:11.034Z,97256.67
2019-05-28T02:22:15.524Z,97257.40
2019-05-28T02:25:20.546Z,97262.25
2019-05-28T02:28:25.038Z,97262.72
2019-05-28T02:31:29.517Z,97262.58
2019-05-28T02:34:34.011Z,97254.48
2019-05-28T02:37:38.509Z,97253.43
2019-05-28T02:40:42.992Z,97258.74
2019-05-28T02:43:47.505Z,97255.53
2019-05-28T02:46:52.019Z,97255.13
2019-05-28T02:49:56.526Z,97255.00
2019-05-28T02:53:01.352Z,97252.36
2019-05-28T02:56:06.819Z,97259.25
2019-05-28T02:59:15.686Z,97260.66
2019-05-28T03:02:22.396Z,97261.08
2019-05-28T03:05:28.026Z,97265.38
2019-05-28T03:08:33.122Z,97263.89
2019-05-28T03:11:37.612Z,97267.20
2019-05-28T03:14:42.103Z,97270.83
2019-05-28T03:17:48.133Z,97271.93
2019-05-28T03:20:54.860Z,97264.49
2019-05-28T03:24:01.287Z,97262.89
2019-05-28T03:27:05.780Z,97263.47
2019-05-28T03:30:11.000Z,97264.16
2019-05-28T03:33:15.844Z,97254.77
2019-05-28T03:36:21.976Z,97258.08
2019-05-28T03:39:27.594Z,97255.92
2019-05-28T03:42:32.105Z,97259.69
2019-05-28T03:45:36.921Z,97264.08
2019-05-28T03:48:41.418Z,97269.14
2019-05-28T03:51:45.917Z,97266.66
2019-05-28T03:54:50.410Z,97267.88
2019-05-28T03:57:54.908Z,97268.69
2019-05-28T04:00:59.750Z,97269.81
2019-05-28T04:04:04.308Z,97273.46
2019-05-28T04:07:08.806Z,97277.29
2019-05-28T04:10:13.361Z,97277.84
2019-05-28T04:13:17.931Z,97287.20
2019-05-28T04:16:22.419Z,97288.41
2019-05-28T04:19:26.920Z,97285.75
2019-05-28T04:22:31.422Z,97294.09
2019-05-28T04:25:35.956Z,97293.55
2019-05-28T04:28:40.431Z,97294.64
2019-05-28T04:31:44.980Z,97295.19
2019-05-28T04:34:49.462Z,97300.84
2019-05-28T04:37:53.970Z,97301.50
2019-05-28T04:40:58.456Z,97304.44
2019-05-28T04:44:02.954Z,97312.53
2019-05-28T04:47:08.701Z,97308.02
2019-05-28T04:50:14.151Z,97312.93
2019-05-28T04:53:18.669Z,97316.91
2019-05-28T04:56:23.167Z,97315.85
2019-05-28T04:59:27.650Z,97326.00
2019-05-28T05:02:32.152Z,97319.79
2019-05-28T05:05:37.677Z,97323.76
2019-05-28T05:08:42.163Z,97323.73
2019-05-28T05:11:46.654Z,97311.86
2019-05-28T05:14:51.134Z,97312.82
2019-05-28T05:17:55.629Z,97320.50
2019-05-28T05:21:00.124Z,97321.77
2019-05-28T05:24:04.620Z,97319.88
2019-05-28T05:27:09.124Z,97309.40
2019-05-28T05:30:14.594Z,97306.87
2019-05-28T05:33:20.617Z,97307.83
2019-05-28T05:36:25.362Z,97311.41
2019-05-28T05:39:29.847Z,97308.06
2019-05-28T05:42:34.338Z,97304.80
2019-05-28T05:45:38.826Z,97313.06
2019-05-28T05:48:43.594Z,97310.30
2019-05-28T05:51:48.348Z,97312.52
2019-05-28T05:54:52.857Z,97312.20
2019-05-28T05:57:57.424Z,97313.80
2019-05-28T06:01:01.899Z,97307.75
2019-05-28T06:04:06.837Z,97313.55
2019-05-28T06:07:11.325Z,97320.70
2019-05-28T06:10:16.961Z,97323.31
2019-05-28T06:13:21.766Z,97323.30
2019-05-28T06:16:26.315Z,97327.52
2019-05-28T06:19:30.820Z,97323.39
2019-05-28T06:22:35.302Z,97316.25
2019-05-28T06:25:39.799Z,97315.55
2019-05-28T06:28:44.301Z,97314.20
2019-05-28T06:31:48.781Z,97320.08
2019-05-28T06:34:53.277Z,97319.36
2019-05-28T06:37:57.750Z,97320.08
2019-05-28T06:41:02.254Z,97321.25
2019-05-28T06:44:06.738Z,97321.66
2019-05-28T06:47:11.241Z,97321.62
2019-05-28T06:50:16.737Z,97321.30
2019-05-28T06:53:21.262Z,97325.05
2019-05-28T06:56:25.738Z,97328.84
2019-05-28T06:59:30.228Z,97331.47
2019-05-28T07:02:34.723Z,97330.67
2019-05-28T07:05:39.208Z,97334.21
2019-05-28T07:08:44.031Z,97338.95
2019-05-28T07:11:48.508Z,97339.09
2019-05-28T07:14:53.027Z,97337.47
2019-05-28T07:17:59.610Z,97334.28
2019-05-28T07:21:03.720Z,97333.87
2019-05-28T07:24:08.223Z,97329.77
2019-05-28T07:27:13.018Z,97329.97
2019-05-28T07:30:17.895Z,97333.55
2019-05-28T07:33:22.701Z,97333.69
2019-05-28T07:36:27.186Z,97335.12
2019-05-28T07:39:31.682Z,97351.32
2019-05-28T07:42:36.159Z,97334.20
2019-05-28T07:45:41.120Z,97336.44
2019-05-28T07:48:45.606Z,97340.30
2019-05-28T07:51:50.154Z,97340.30
2019-05-28T07:54:54.639Z,97341.35
2019-05-28T07:57:59.133Z,97348.38
2019-05-28T08:01:03.626Z,97352.80
2019-05-28T08:04:08.126Z,97354.81
2019-05-28T08:07:12.613Z,97354.70
2019-05-28T08:10:17.272Z,97352.92
2019-05-28T08:13:21.752Z,97351.17
2019-05-28T08:16:26.801Z,97348.12
2019-05-28T08:19:31.329Z,97352.11
2019-05-28T08:22:42.156Z,97355.94
2019-05-28T08:25:47.249Z,97346.52
2019-05-28T08:28:48.621Z,97353.63
2019-05-28T08:31:53.398Z,97351.34
2019-05-28T08:35:05.662Z,97356.45
2019-05-28T08:38:04.108Z,97352.77
2019-05-28T08:41:08.683Z,97359.11
2019-05-28T08:44:13.439Z,97361.77
2019-05-28T08:47:18.282Z,97363.89
2019-05-28T08:50:33.626Z,97361.31
2019-05-28T08:53:28.971Z,97366.23
2019-05-28T08:56:33.470Z,97366.08
2019-05-28T08:59:37.947Z,97376.03
2019-05-28T09:02:42.454Z,97371.80
2019-05-28T09:05:46.947Z,97373.78
2019-05-28T09:08:51.430Z,97375.23
2019-05-28T09:11:55.992Z,97379.37
2019-05-28T09:15:00.532Z,97385.03
2019-05-28T09:18:05.749Z,97389.26
2019-05-28T09:21:10.736Z,97383.97
2019-05-28T09:24:15.220Z,97379.57
2019-05-28T09:27:19.708Z,97377.42
2019-05-28T09:30:24.550Z,97380.45
2019-05-28T09:33:29.031Z,97377.22
2019-05-28T09:36:33.523Z,97382.08
2019-05-28T09:39:38.294Z,97380.04
2019-05-28T09:42:42.810Z,97380.08
2019-05-28T09:45:47.293Z,97387.31
2019-05-28T09:48:51.778Z,97387.06
2019-05-28T09:51:56.640Z,97395.91
2019-05-28T09:55:01.134Z,97387.36
2019-05-28T09:58:06.418Z,97383.38
2019-05-28T10:01:11.089Z,97395.69
2019-05-28T10:04:15.566Z,97389.86
2019-05-28T10:07:20.121Z,97396.66
2019-05-28T10:10:24.714Z,97397.02
2019-05-28T10:13:38.846Z,97393.98
2019-05-28T10:16:35.421Z,97398.77
2019-05-28T10:19:39.913Z,97392.31
2019-05-28T10:22:45.158Z,97403.31
2019-05-28T10:25:49.649Z,97405.72
2019-05-28T10:28:54.499Z,97400.32
2019-05-28T10:31:59.059Z,97407.81
2019-05-28T10:35:04.498Z,97407.72
2019-05-28T10:38:15.470Z,97417.20
2019-05-28T10:41:16.077Z,97413.96
2019-05-28T10:44:20.581Z,97421.55
2019-05-28T10:47:25.449Z,97424.39
2019-05-28T10:50:30.278Z,97433.31
2019-05-28T10:53:34.777Z,97440.30
2019-05-28T10:56:39.470Z,97437.80
2019-05-28T10:59:44.775Z,97440.50
2019-05-28T11:02:49.270Z,97444.08
2019-05-28T11:05:54.030Z,97444.66
2019-05-28T11:08:58.525Z,97449.33
2019-05-28T11:12:03.100Z,97446.88
2019-05-28T11:15:10.079Z,97444.31
2019-05-28T11:18:14.582Z,97448.23
2019-05-28T11:21:19.426Z,97452.89
2019-05-28T11:24:23.913Z,97453.92
2019-05-28T11:27:28.487Z,97461.48
2019-05-28T11:30:33.083Z,97464.30
2019-05-28T11:33:37.572Z,97457.33
2019-05-28T11:36:42.046Z,97464.42
2019-05-28T11:39:46.541Z,97458.09
2019-05-28T11:42:51.038Z,97461.40
2019-05-28T11:45:55.524Z,97459.10
2019-05-28T11:49:00.025Z,97464.67
2019-05-28T11:52:04.745Z,97464.66
2019-05-28T11:55:17.420Z,97461.25
2019-05-28T11:58:21.912Z,97464.87
2019-05-28T12:01:34.434Z,97454.70
2019-05-28T12:04:32.625Z,97455.24
2019-05-28T12:07:37.452Z,97450.90
2019-05-28T12:10:41.953Z,97453.81
2019-05-28T12:13:48.281Z,97461.48
2019-05-28T12:16:52.745Z,97458.09
2019-05-28T12:19:57.240Z,97464.10
2019-05-28T12:23:11.348Z,97455.25
2019-05-28T12:26:07.961Z,97457.83
2019-05-28T12:29:12.713Z,97453.09
2019-05-28T12:32:17.688Z,97452.98
2019-05-28T12:35:29.248Z,97451.76
2019-05-28T12:38:29.436Z,97448.36
2019-05-28T12:41:33.922Z,97451.30
2019-05-28T12:44:42.272Z,97449.05
2019-05-28T12:47:44.933Z,97456.63
2019-05-28T12:50:49.417Z,97455.42
2019-05-28T12:53:54.295Z,97445.23
2019-05-28T12:56:58.775Z,97441.21
2019-05-28T13:00:04.917Z,97442.08
2019-05-28T13:03:09.469Z,97439.20
2019-05-28T13:06:14.297Z,97444.70
2019-05-28T13:09:18.811Z,97444.47
2019-05-28T13:12:23.295Z,97436.47
2019-05-28T13:15:27.810Z,97439.28
2019-05-28T13:18:32.809Z,97438.14
2019-05-28T13:21:37.308Z,97448.90
2019-05-28T13:24:42.064Z,97445.95
2019-05-28T13:27:46.553Z,97443.42
2019-05-28T13:30:51.047Z,97443.59
2019-05-28T13:33:55.710Z,97446.80
2019-05-28T13:37:00.204Z,97442.55
2019-05-28T13:40:07.019Z,97445.86
2019-05-28T13:43:11.511Z,97444.02
2019-05-28T13:46:16.027Z,97447.80
2019-05-28T13:49:20.840Z,97448.52
2019-05-28T13:52:25.665Z,97447.08
2019-05-28T13:55:30.159Z,97449.97
2019-05-28T13:58:34.633Z,97454.83
2019-05-28T14:01:39.449Z,97456.92
2019-05-28T14:04:43.941Z,97450.61
2019-05-28T14:07:48.438Z,97457.05
2019-05-28T14:10:52.937Z,97456.41
2019-05-28T14:13:57.416Z,97450.92
2019-05-28T14:17:02.243Z,97439.60
2019-05-28T14:20:10.063Z,97451.66
2019-05-28T14:23:14.633Z,97442.30
2019-05-28T14:26:19.126Z,97440.62
2019-05-28T14:29:23.622Z,97438.53
2019-05-28T14:32:28.143Z,97445.35
2019-05-28T14:35:32.858Z,97446.34
2019-05-28T14:38:37.429Z,97453.11
2019-05-28T14:41:42.669Z,97451.44
2019-05-28T14:44:47.143Z,97458.75
2019-05-28T14:47:51.635Z,97463.33
2019-05-28T14:50:56.199Z,97455.52
2019-05-28T14:54:00.692Z,97454.77
2019-05-28T14:57:05.182Z,97465.34
2019-05-28T15:00:11.865Z,97456.98
2019-05-28T15:03:16.379Z,97465.73
2019-05-28T15:06:20.881Z,97463.81
2019-05-28T15:09:25.702Z,97467.59
2019-05-28T15:12:30.511Z,97466.80
2019-05-28T15:15:36.539Z,97473.22
2019-05-28T15:18:41.259Z,97473.31
2019-05-28T15:21:45.767Z,97481.62
2019-05-28T15:24:50.561Z,97486.70
2019-05-28T15:27:55.057Z,97484.49
2019-05-28T15:30:59.535Z,97484.17
2019-05-28T15:34:04.034Z,97492.56
2019-05-28T15:37:08.612Z,97498.86
2019-05-28T15:40:14.114Z,97501.03
2019-05-28T15:43:18.674Z,97507.39
2019-05-28T15:46:23.186Z,97505.86
2019-05-28T15:49:27.675Z,97515.86
2019-05-28T15:52:32.415Z,97516.92
2019-05-28T15:55:37.264Z,97524.06
2019-05-28T15:58:41.760Z,97521.20
2019-05-28T16:01:46.247Z,97523.14
2019-05-28T16:04:50.740Z,97521.41
2019-05-28T16:07:55.221Z,97520.86
2019-05-28T16:10:59.984Z,97530.13
2019-05-28T16:14:04.789Z,97528.88
2019-05-28T16:17:09.281Z,97534.55
2019-05-28T16:20:17.144Z,97538.84
2019-05-28T16:23:21.633Z,97539.96
2019-05-28T16:26:26.113Z,97542.89
2019-05-28T16:29:30.660Z,97553.63
2019-05-28T16:32:35.448Z,97547.23
2019-05-28T16:35:39.928Z,97558.08
2019-05-28T16:38:44.418Z,97559.43
2019-05-28T16:41:48.918Z,97560.25
2019-05-28T16:44:56.241Z,97565.72
2019-05-28T16:47:59.624Z,97565.84
2019-05-28T16:51:04.147Z,97563.92
2019-05-28T16:54:18.859Z,97566.19
2019-05-28T16:57:14.825Z,97566.64
2019-05-28T17:00:19.621Z,97566.30
2019-05-28T17:03:24.524Z,97563.78
2019-05-28T17:06:29.018Z,97565.80
2019-05-28T17:09:33.879Z,97572.92
2019-05-28T17:12:38.375Z,97568.73
2019-05-28T17:15:42.903Z,97571.17
2019-05-28T17:18:47.388Z,97585.11
2019-05-28T17:21:51.872Z,97586.53
2019-05-28T17:24:56.363Z,97591.95
2019-05-28T17:28:00.849Z,97591.45
2019-05-28T17:31:05.340Z,97592.05
2019-05-28T17:34:09.838Z,97596.23
2019-05-28T17:37:14.350Z,97598.44
2019-05-28T17:40:21.841Z,97594.00
2019-05-28T17:43:25.592Z,97609.42
2019-05-28T17:46:30.077Z,97610.94
2019-05-28T17:49:34.577Z,97612.51
2019-05-28T17:52:39.086Z,97619.33
2019-05-28T17:55:43.915Z,97616.53
2019-05-28T17:58:48.408Z,97624.87
2019-05-28T18:01:52.878Z,97630.50
2019-05-28T18:04:57.371Z,97625.51
2019-05-28T18:08:01.856Z,97629.69
2019-05-28T18:11:06.328Z,97634.26
2019-05-28T18:14:11.074Z,97637.35
2019-05-28T18:17:15.559Z,97637.53
2019-05-28T18:20:20.534Z,97654.60
2019-05-28T18:23:25.303Z,97650.78
2019-05-28T18:26:30.032Z,97657.03
2019-05-28T18:29:34.519Z,97663.38
2019-05-28T18:32:39.005Z,97664.81
2019-05-28T18:35:43.486Z,97663.13
2019-05-28T18:38:47.985Z,97666.28
2019-05-28T18:41:52.469Z,97675.14
2019-05-28T18:44:56.956Z,97679.43
2019-05-28T18:48:01.528Z,97689.58
2019-05-28T18:51:06.003Z,97690.87
2019-05-28T18:54:10.489Z,97699.41
2019-05-28T18:57:14.969Z,97702.95
2019-05-28T19:00:19.685Z,97711.55
2019-05-28T19:03:24.504Z,97711.55
2019-05-28T19:06:28.993Z,97717.93
2019-05-28T19:09:33.476Z,97726.77
2019-05-28T19:12:38.128Z,97729.70
2019-05-28T19:15:42.610Z,97736.38
2019-05-28T19:18:47.093Z,97740.54
2019-05-28T19:21:51.857Z,97749.48
2019-05-28T19:24:57.403Z,97760.23
2019-05-28T19:28:02.110Z,97765.77
2019-05-28T19:31:06.784Z,97770.69
2019-05-28T19:34:11.934Z,97771.55
2019-05-28T19:37:16.806Z,97769.33
2019-05-28T19:40:36.895Z,97773.44
2019-05-28T19:43:41.621Z,97783.81
2019-05-28T19:46:46.459Z,97782.56
2019-05-28T19:49:51.185Z,97782.13
2019-05-28T19:52:57.313Z,97789.25
2019-05-28T19:56:01.806Z,97797.20
2019-05-28T19:59:06.512Z,97802.55
2019-05-28T20:02:11.915Z,97807.75
2019-05-28T20:05:20.681Z,97809.73
2019-05-28T20:08:27.699Z,97816.28
2019-05-28T20:11:32.138Z,97827.57
2019-05-28T20:14:36.594Z,97826.67
2019-05-28T20:17:41.043Z,97836.97
2019-05-28T20:20:45.550Z,97838.97
2019-05-28T20:23:50.302Z,97842.55
2019-05-28T20:26:55.909Z,97842.16
2019-05-28T20:30:00.998Z,97855.96
2019-05-28T20:33:05.606Z,97852.05
2019-05-28T20:36:10.160Z,97855.70
2019-05-28T20:39:14.579Z,97846.27
2019-05-28T20:42:27.252Z,97856.91
2019-05-28T20:45:25.548Z,97857.71
2019-05-28T20:48:29.994Z,97859.27
2019-05-28T20:51:34.442Z,97859.89
2019-05-28T20:54:38.891Z,97867.29
2019-05-28T20:57:43.664Z,97873.77
2019-05-28T21:00:49.469Z,97871.22
2019-05-28T21:03:54.143Z,97875.42
2019-05-28T21:06:58.960Z,97879.36
2019-05-28T21:10:04.394Z,97877.47
2019-05-28T21:13:08.832Z,97884.55
2019-05-28T21:16:13.295Z,97878.78
2019-05-28T21:19:17.741Z,97879.43
2019-05-28T21:22:26.608Z,97884.66
2019-05-28T21:25:28.390Z,97886.44
2019-05-28T21:28:33.124Z,97879.80
2019-05-28T21:31:37.586Z,97883.89
2019-05-28T21:34:42.028Z,97894.17
2019-05-28T21:37:46.801Z,97896.03
2019-05-28T21:40:51.559Z,97897.45
2019-05-28T21:43:56.079Z,97897.87
2019-05-28T21:47:00.558Z,97903.11
2019-05-28T21:50:07.961Z,97912.91
2019-05-28T21:53:12.721Z,97913.49
2019-05-28T21:56:17.174Z,97909.58
2019-05-28T21:59:21.630Z,97917.43
2019-05-28T22:02:26.077Z,97920.16
2019-05-28T22:05:30.515Z,97925.34
2019-05-28T22:08:34.963Z,97926.52
2019-05-28T22:11:39.758Z,97922.24
2019-05-28T22:14:44.203Z,97931.03
2019-05-28T22:17:48.645Z,97931.99
2019-05-28T22:20:53.442Z,97939.09
2019-05-28T22:23:58.405Z,97938.16
2019-05-28T22:27:02.923Z,97940.67
2019-05-28T22:30:09.873Z,97938.52
2019-05-28T22:33:14.331Z,97935.86
2019-05-28T22:36:18.799Z,97942.16
2019-05-28T22:39:23.243Z,97937.44
2019-05-28T22:42:27.690Z,97945.87
2019-05-28T22:45:32.146Z,97946.59
2019-05-28T22:48:36.596Z,97953.55
2019-05-28T22:51:41.392Z,97953.02
2019-05-28T22:54:45.828Z,97948.66
2019-05-28T22:57:50.284Z,97945.17
2019-05-28T23:00:54.719Z,97958.48
2019-05-28T23:03:59.173Z,97955.49
2019-05-28T23:07:03.639Z,97959.69
2019-05-28T23:10:09.927Z,97963.67
2019-05-28T23:13:14.421Z,97961.62
2019-05-28T23:16:18.874Z,97966.33
2019-05-28T23:19:23.631Z,97965.52
2019-05-28T23:22:28.080Z,97969.33
2019-05-28T23:25:32.526Z,97965.48
2019-05-28T23:28:36.977Z,97969.95
2019-05-28T23:31:41.412Z,97973.78
2019-05-28T23:34:45.860Z,97977.78
2019-05-28T23:37:50.305Z,97981.70
2019-05-28T23:40:54.758Z,97991.43
2019-05-28T23:44:01.906Z,97990.48
2019-05-28T23:47:06.045Z,97994.92
2019-05-28T23:50:15.814Z,98000.30
2019-05-28T23:53:17.953Z,98002.42
2019-05-28T23:56:22.488Z,98005.11
2019-05-28T23:59:26.955Z,98007.75
